Авиационная погода в Ивано-Франковске

Регион: 
Погода METAR: 
UKLI 221800Z 29005MPS 240V310 9999 -SHSN BKN020CB BKN036 M03/M06 Q1019 TEMPO 29011G16MPS
Время наблюдения
2022-01-22T18:00:00Z
Температура C
-3.0
Точка росы
-6.0
Направление ветра
290
Скорость ветра (узлы)
10
Метео видимость
6.21
Облачность
BKN
BKN
Нижняя граница облачности (футы)
2000
3600
Явления погоды
-SHSN
Условия полета
MVFR
Аэропорт подробнее: 
BKN – значительная (рассеянная, разорванная) облачность;
-SHSN - слабый ливневой снег;